Honolulu, HI

6:29 PM HST on October 20, 2014 (GMT -1000)
Honolulu International | Change Station
CLOSE
Current Station
Airport
Location: Honolulu,
Elevation: 16 ft
Nearby Weather Stations
Active Advisory: High Surf Advisory

Elev 16 ft 21.32 °N, 157.92 °W | Updated 36 minutes ago

Mostly Cloudy
Mostly Cloudy
82 °F
Feels Like 86 °F
N
10
Wind Variable Wind from ENE

Today
High -- | Low -- °F
--% Chance of Precip.
Yesterday
High -- | Low -- °F
Precip. -- in
6:29 AM 6:02 PM
Waning Crescent, 7% visible
Pressure 29.94 in
Visibility 10.0 miles
Clouds Few 2700 ft
Scattered Clouds 4700 ft
Scattered Clouds 9000 ft
Mostly Cloudy 18000 ft
Heat Index 86 °F
Dew Point 70 °F
Humidity 67%
Rainfall 0.00 in
Snow Depth Not available.
UV 0 out of 12
Pollen Not available.
Air Quality Not available.
Flu Activity Sporadic
METAR PHNL 210353Z 06009KT 10SM FEW027 SCT047 SCT090 BKN180 28/21 A2994 RMK AO2 SLP138 T02780211

More Conditions Fewer Conditions

Pressure 29.94 in
Visibility 10.0 miles
Clouds Few 2700 ft
Scattered Clouds 4700 ft
Scattered Clouds 9000 ft
Mostly Cloudy 18000 ft
Heat Index 86 °F
Dew Point 70 °F
Humidity 67%
Rainfall 0.00 in
Snow Depth Not available.
UV 0 out of 12
Pollen Not available.
Air Quality Not available.
Flu Activity Sporadic
METAR PHNL 210353Z 06009KT 10SM FEW027 SCT047 SCT090 BKN180 28/21 A2994 RMK AO2 SLP138 T02780211

More Conditions Fewer Conditions

10-Day Weather Forecast

Almanac

Astronomy

Oct. 20, 2014 Rise Set
Actual Time 6:29 AM HST 6:02 PM HST
Civil Twilight 6:06 AM HST 6:25 PM HST
Nautical Twilight 5:40 AM HST 6:51 PM HST
Astronomical Twilight 5:14 AM HST 7:17 PM HST
Moon 3:49 AM HST (10/20) 4:13 PM HST (10/20)
Length of Visible Light 12h 18m
Length of Day
11h 33m
Tomorrow will be 1m 9s shorter.
Waning Crescent, 7% of the Moon is Illuminated
Oct 21
Waning Crescent
Oct 23
New
Oct 30
First Quarter
Nov 6
Full
Nov 14
Last Quarter

Yesterday's Extremes

State Highs State Lows

Community

WunderPhotos

Upload Photos

1,763,608 photos uploaded!

Nearby

Air Quality

  Air Quality AQ Index Pollutant
Monday Good
OZONE
Tuesday Good
OZONE

Snow Depth

Station Depth Elevation
No new snow has been reported.

Earthquake Activity

City Distance Mag. Time & Date
No recent earthquake activity has been reported nearby.
Minimum magnitude displayed is 2.5.

Coastal Water Temperatures

Place Temperature
No Stations Reporting

Nearby Weather Stations